createdAt,value
2018-04-08T21:55:34.798Z,100117.17
2018-04-08T21:58:02.356Z,100115.91
2018-04-08T22:00:31.470Z,100108.30
2018-04-08T22:03:01.567Z,100119.88
2018-04-08T22:05:31.664Z,100114.52
2018-04-08T22:08:01.457Z,100119.23
2018-04-08T22:10:28.982Z,100118.09
2018-04-08T22:13:04.112Z,100116.59
2018-04-08T22:15:38.490Z,100118.42
2018-04-08T22:18:09.374Z,100122.28
2018-04-08T22:20:51.191Z,100121.22
2018-04-08T22:23:18.776Z,100124.69
2018-04-08T22:25:46.960Z,100129.05
2018-04-08T22:28:17.997Z,100128.59
2018-04-08T22:30:53.087Z,100130.81
2018-04-08T22:33:28.048Z,100133.91
2018-04-08T22:35:58.107Z,100138.00
2018-04-08T22:38:33.217Z,100140.72
2018-04-08T22:41:13.603Z,100139.47
2018-04-08T22:43:49.351Z,100141.47
2018-04-08T22:46:23.508Z,100140.13
2018-04-08T22:51:53.303Z,100150.35
2018-04-08T22:54:27.297Z,100141.31
2018-04-08T22:57:00.474Z,100141.70
2018-04-08T22:59:39.836Z,100140.81
2018-04-08T23:02:16.038Z,100137.97
2018-04-08T23:04:50.238Z,100135.78
2018-04-08T23:07:26.604Z,100129.93
2018-04-08T23:10:04.948Z,100139.05
2018-04-08T23:12:41.917Z,100139.36
2018-04-08T23:15:17.055Z,100134.98
2018-04-08T23:17:51.912Z,100133.05
2018-04-08T23:20:26.450Z,100138.00
2018-04-08T23:23:13.192Z,100131.29
2018-04-08T23:25:48.294Z,100136.96
2018-04-08T23:28:28.539Z,100126.48
2018-04-08T23:30:59.407Z,100131.03
2018-04-08T23:33:32.321Z,100128.03
2018-04-08T23:36:02.080Z,100136.20
2018-04-08T23:38:33.083Z,100137.02
2018-04-08T23:41:06.844Z,100132.54
2018-04-08T23:43:39.525Z,100134.48
2018-04-08T23:46:11.694Z,100130.00
2018-04-08T23:48:44.090Z,100127.22
2018-04-08T23:51:19.124Z,100130.13
2018-04-08T23:53:51.815Z,100134.66
2018-04-08T23:56:25.344Z,100134.22
2018-04-08T23:58:52.938Z,100133.27
